Time;durP1;ratioP1;P1;durP2;ratioP2;P2;SDS_P1;SDS_P2;PMS_P1;PMS_P2;Temp;Humidity;BMP_temperature;BMP_pressure;BME280_temperature;BME280_humidity;BME280_pressure;Samples;Min_cycle;Max_cycle;Signal;HPM_P1;HPM_P2
2022/06/02 04:37:48;;;;;;;8.18;3.63;;;13.80;80.60;;;;;;4970870;28;20085;-73
2022/06/02 04:40:42;;;;;;;11.88;6.70;;;13.80;80.50;;;;;;4977162;28;20054;-76
2022/06/02 04:43:09;;;;;;;10.30;6.30;;;13.80;80.60;;;;;;4975245;28;20101;-77
2022/06/02 04:45:55;;;;;;;14.60;5.45;;;13.80;80.60;;;;;;4974953;28;20023;-77
2022/06/02 04:48:37;;;;;;;10.57;5.38;;;13.80;80.50;;;;;;5048047;28;20444;-75
2022/06/02 04:51:31;;;;;;;6.80;3.67;;;13.70;80.50;;;;;;4974306;28;20044;-70
2022/06/02 04:54:20;;;;;;;10.35;5.40;;;13.70;80.40;;;;;;4972447;28;20026;-73
2022/06/02 04:56:52;;;;;;;7.78;4.43;;;13.70;80.50;;;;;;4973689;28;20042;-72
2022/06/02 04:59:46;;;;;;;7.40;4.63;;;13.70;80.40;;;;;;4970951;28;20110;-74
2022/06/02 05:02:35;;;;;;;10.93;3.67;;;13.70;80.50;;;;;;4971322;28;20043;-74
2022/06/02 05:05:35;;;;;;;5.28;4.28;;;13.70;80.50;;;;;;4973997;28;20476;-72
2022/06/02 05:08:05;;;;;;;5.78;3.38;;;13.70;80.50;;;;;;4975042;28;20042;-73
2022/06/02 05:10:50;;;;;;;7.93;3.97;;;13.60;80.40;;;;;;4974115;28;20023;-73
2022/06/02 05:13:58;;;;;;;5.30;3.08;;;13.70;80.30;;;;;;4977896;28;20026;-73
2022/06/02 05:17:03;;;;;;;7.00;3.25;;;13.70;80.30;;;;;;4977887;28;20478;-74
2022/06/02 05:19:33;;;;;;;6.72;4.18;;;13.60;80.40;;;;;;4973726;28;20466;-72
2022/06/02 05:22:01;;;;;;;5.82;3.47;;;13.60;80.50;;;;;;4979018;28;20050;-74
2022/06/02 05:24:54;;;;;;;10.63;4.35;;;13.60;80.70;;;;;;4979797;28;20037;-74
2022/06/02 05:27:58;;;;;;;7.55;3.70;;;13.60;81.00;;;;;;4982294;28;20030;-73
2022/06/02 05:30:45;;;;;;;7.28;2.72;;;13.60;81.10;;;;;;4979614;28;20023;-74
2022/06/02 05:33:34;;;;;;;6.55;3.28;;;13.60;81.40;;;;;;4982234;28;20022;-75
2022/06/02 05:36:01;;;;;;;4.22;2.38;;;13.60;81.60;;;;;;4984068;28;20026;-74
2022/06/02 05:38:48;;;;;;;6.38;2.00;;;13.70;81.90;;;;;;4981659;28;20050;-75
2022/06/02 05:41:33;;;;;;;4.07;2.50;;;13.70;82.20;;;;;;4979126;28;20112;-75
2022/06/02 05:44:22;;;;;;;9.38;3.40;;;13.60;82.40;;;;;;4978405;28;20105;-70
2022/06/02 05:47:12;;;;;;;8.98;4.47;;;13.70;82.60;;;;;;4978199;28;20027;-75
2022/06/02 05:49:50;;;;;;;6.53;3.83;;;13.70;82.80;;;;;;4976430;28;20035;-72
2022/06/02 05:52:33;;;;;;;10.57;5.07;;;13.70;82.90;;;;;;4978403;28;20027;-75
2022/06/02 05:55:24;;;;;;;8.65;6.00;;;13.70;83.00;;;;;;5064248;28;20030;-75
2022/06/02 05:58:50;;;;;;;19.30;7.00;;;13.80;83.10;;;;;;4979396;28;20135;-75
2022/06/02 06:01:39;;;;;;;13.10;6.57;;;13.80;83.30;;;;;;5025370;28;20041;-75
2022/06/02 06:04:22;;;;;;;12.70;7.10;;;13.80;83.50;;;;;;4981491;28;20023;-75
2022/06/02 06:06:57;;;;;;;10.40;5.90;;;13.80;83.70;;;;;;4975662;28;20031;-76
2022/06/02 06:09:42;;;;;;;;;;;13.80;83.90;;;;;;4976154;28;20023;-76
2022/06/02 06:12:45;;;;;;;14.48;7.18;;;13.90;84.10;;;;;;4978726;28;20332;-75
2022/06/02 06:15:39;;;;;;;14.95;8.52;;;13.90;84.20;;;;;;4983323;28;20485;-76
2022/06/02 06:18:20;;;;;;;15.98;8.82;;;13.90;84.30;;;;;;4979495;28;20058;-76
2022/06/02 06:21:08;;;;;;;17.83;8.35;;;13.90;84.70;;;;;;4983902;28;20026;-75
2022/06/02 06:24:19;;;;;;;19.65;8.57;;;13.90;84.80;;;;;;4978780;28;20105;-76
2022/06/02 06:27:11;;;;;;;12.05;8.07;;;14.00;85.10;;;;;;4993731;28;20042;-75
2022/06/02 06:29:41;;;;;;;14.85;9.32;;;14.00;85.50;;;;;;4979754;28;20129;-75
2022/06/02 06:32:14;;;;;;;15.88;9.10;;;14.00;85.70;;;;;;4983803;28;20054;-71
2022/06/02 06:35:03;;;;;;;20.27;9.73;;;14.10;85.90;;;;;;4980775;28;20049;-76
2022/06/02 06:37:45;;;;;;;18.17;10.95;;;14.10;86.20;;;;;;4978404;28;20045;-73
2022/06/02 06:40:33;;;;;;;18.35;10.50;;;14.10;86.30;;;;;;4977743;28;20023;-76
2022/06/02 06:43:08;;;;;;;18.40;12.45;;;14.20;86.60;;;;;;4981003;28;20485;-72
2022/06/02 06:45:50;;;;;;;;;;;14.20;86.50;;;;;;4974564;28;20061;-76
2022/06/02 06:48:24;;;;;;;22.33;10.85;;;14.20;86.40;;;;;;4979587;28;19918;-75
2022/06/02 06:51:07;;;;;;;18.58;11.55;;;14.30;86.40;;;;;;4978955;28;20438;-76
2022/06/02 06:53:49;;;;;;;22.90;11.13;;;14.30;86.90;;;;;;4979805;28;20018;-76
2022/06/02 06:56:33;;;;;;;14.48;10.10;;;14.30;86.30;;;;;;4979956;28;20463;-75
2022/06/02 06:59:26;;;;;;;19.88;12.05;;;14.30;86.30;;;;;;4976798;28;20065;-75
2022/06/02 07:02:15;;;;;;;17.05;11.02;;;14.40;86.30;;;;;;4980891;28;20034;-77
2022/06/02 07:05:09;;;;;;;20.85;11.13;;;14.40;86.30;;;;;;4981980;28;20042;-74
2022/06/02 07:07:49;;;;;;;18.73;10.45;;;14.40;86.40;;;;;;4984531;28;20504;-72
2022/06/02 07:10:53;;;;;;;20.98;10.18;;;14.40;86.40;;;;;;4983660;28;20061;-73
2022/06/02 07:13:44;;;;;;;15.40;9.27;;;14.40;86.70;;;;;;4979348;28;20022;-75
2022/06/02 07:16:55;;;;;;;19.95;8.77;;;14.50;87.00;;;;;;4974597;28;20023;-74
2022/06/02 07:19:52;;;;;;;20.42;10.48;;;14.50;87.00;;;;;;5000692;28;20035;-75
2022/06/02 07:22:36;;;;;;;16.45;9.10;;;14.60;87.20;;;;;;4978403;28;20092;-75
2022/06/02 07:25:25;;;;;;;20.98;9.15;;;14.60;87.20;;;;;;4976328;28;20022;-75
2022/06/02 07:28:09;;;;;;;26.30;9.60;;;14.60;87.40;;;;;;4983130;28;20485;-73
2022/06/02 07:30:57;;;;;;;13.02;8.35;;;14.60;87.80;;;;;;4977717;28;20022;-74
2022/06/02 07:33:42;;;;;;;15.45;8.98;;;14.70;88.20;;;;;;4976810;28;20058;-74
2022/06/02 07:36:15;;;;;;;21.63;9.35;;;14.70;89.10;;;;;;4981068;28;20418;-74
2022/06/02 07:39:03;;;;;;;12.88;8.32;;;14.80;89.90;;;;;;4974470;28;20029;-74
2022/06/02 07:41:55;;;;;;;14.68;7.47;;;14.80;90.20;;;;;;4982014;28;20026;-74
2022/06/02 07:44:57;;;;;;;13.55;8.98;;;14.80;90.40;;;;;;4975334;28;20086;-75
2022/06/02 07:47:36;;;;;;;14.80;7.95;;;14.90;90.70;;;;;;4975752;28;20039;-75
2022/06/02 07:50:10;;;;;;;10.32;7.03;;;14.90;90.90;;;;;;4978240;28;20072;-74
2022/06/02 07:53:02;;;;;;;14.30;6.93;;;15.00;91.00;;;;;;4975280;28;20045;-74
2022/06/02 07:55:28;;;;;;;13.73;7.60;;;15.00;91.10;;;;;;4972745;28;20061;-75
2022/06/02 07:58:23;;;;;;;14.68;7.25;;;15.10;91.10;;;;;;4975915;28;20058;-73
2022/06/02 08:01:23;;;;;;;18.10;8.68;;;15.10;91.10;;;;;;4977930;28;20421;-74
2022/06/02 08:04:18;;;;;;;20.05;8.85;;;15.10;91.00;;;;;;4976057;28;20105;-73
2022/06/02 08:07:01;;;;;;;10.50;7.53;;;15.10;90.70;;;;;;4976144;28;20022;-74
2022/06/02 08:09:33;;;;;;;12.68;7.30;;;15.20;90.50;;;;;;4981627;28;20038;-74
2022/06/02 08:12:15;;;;;;;15.38;8.30;;;15.20;90.30;;;;;;4978022;28;20014;-74
2022/06/02 08:15:06;;;;;;;18.40;8.10;;;15.20;90.20;;;;;;4978037;28;20019;-74
2022/06/02 08:17:47;;;;;;;17.27;7.38;;;15.30;89.80;;;;;;4976081;28;20519;-73
2022/06/02 08:20:45;;;;;;;16.48;7.53;;;15.30;89.60;;;;;;4976408;28;20027;-73
2022/06/02 08:23:46;;;;;;;16.17;7.53;;;15.30;89.10;;;;;;4976671;28;20030;-73
2022/06/02 08:26:20;;;;;;;14.50;7.63;;;15.40;88.70;;;;;;4977387;28;20041;-74
2022/06/02 08:28:52;;;;;;;13.02;7.68;;;15.40;88.70;;;;;;4977384;28;20034;-74
2022/06/02 08:31:49;;;;;;;12.15;7.00;;;15.50;88.60;;;;;;4978856;28;20045;-74
2022/06/02 08:34:38;;;;;;;9.38;5.22;;;15.50;88.30;;;;;;4975410;28;20340;-73
2022/06/02 08:37:17;;;;;;;13.52;6.20;;;15.50;87.90;;;;;;4976088;28;20042;-74
2022/06/02 08:39:44;;;;;;;16.83;4.20;;;15.60;87.70;;;;;;4976732;28;20022;-73
2022/06/02 08:42:33;;;;;;;6.45;3.75;;;15.60;87.10;;;;;;4978178;28;20056;-74
2022/06/02 08:45:19;;;;;;;5.40;2.95;;;15.70;86.50;;;;;;4976572;28;20482;-73
2022/06/02 08:48:04;;;;;;;7.28;2.42;;;15.70;85.90;;;;;;4974896;28;20046;-73
2022/06/02 08:50:48;;;;;;;4.72;2.03;;;15.80;85.50;;;;;;4978917;28;20027;-72
2022/06/02 08:53:47;;;;;;;7.18;2.03;;;15.80;84.90;;;;;;4979036;28;20105;-74
2022/06/02 08:56:33;;;;;;;4.45;1.50;;;15.90;84.00;;;;;;4975644;28;20035;-73
2022/06/02 08:59:31;;;;;;;3.03;1.55;;;15.90;82.80;;;;;;4985154;28;20034;-74
2022/06/02 09:02:19;;;;;;;3.58;1.60;;;16.00;82.30;;;;;;4980392;28;20030;-74
2022/06/02 09:05:17;;;;;;;2.40;1.08;;;16.00;81.70;;;;;;4980635;28;20086;-73
2022/06/02 09:08:03;;;;;;;1.25;0.70;;;16.10;81.10;;;;;;4977510;28;20035;-73
2022/06/02 09:10:35;;;;;;;1.85;1.00;;;16.10;81.00;;;;;;4980276;28;20102;-74
2022/06/02 09:13:28;;;;;;;3.67;0.98;;;16.10;80.40;;;;;;4980827;28;20021;-73
2022/06/02 09:16:17;;;;;;;2.00;0.70;;;16.20;80.00;;;;;;4979422;28;20101;-73
2022/06/02 09:19:13;;;;;;;1.42;0.93;;;16.30;79.90;;;;;;4976264;28;20031;-74
2022/06/02 09:21:49;;;;;;;1.10;0.75;;;16.30;79.90;;;;;;4980508;28;20478;-73
2022/06/02 09:25:04;;;;;;;3.03;1.15;;;16.40;79.70;;;;;;4984658;28;20029;-74
2022/06/02 09:27:57;;;;;;;5.43;1.42;;;16.50;79.60;;;;;;4979686;28;20497;-74
2022/06/02 09:31:03;;;;;;;8.13;1.60;;;16.50;78.60;;;;;;4977980;28;20416;-74
2022/06/02 09:33:52;;;;;;;8.13;1.40;;;16.50;78.10;;;;;;4979097;28;20026;-73
2022/06/02 09:36:40;;;;;;;7.55;1.60;;;16.60;78.20;;;;;;4978491;28;20039;-74
2022/06/02 09:39:39;;;;;;;5.03;1.60;;;16.60;77.80;;;;;;4983798;28;20022;-74
2022/06/02 09:42:42;;;;;;;10.05;2.13;;;16.70;77.10;;;;;;4987941;28;20039;-74
2022/06/02 09:45:37;;;;;;;3.33;0.90;;;16.80;75.90;;;;;;4977172;28;20127;-74
2022/06/02 09:48:32;;;;;;;3.83;1.17;;;16.80;75.80;;;;;;4978255;28;20026;-73
2022/06/02 09:51:17;;;;;;;4.07;1.08;;;16.90;75.60;;;;;;4977466;28;20044;-74
2022/06/02 09:54:20;;;;;;;6.07;0.93;;;17.00;75.70;;;;;;4979250;28;20027;-74
2022/06/02 10:00:15;;;;;;;2.47;1.05;;;17.10;75.80;;;;;;4980468;28;20113;-72
2022/06/02 10:03:04;;;;;;;7.43;1.00;;;17.20;75.70;;;;;;4979720;28;20034;-74
2022/06/02 10:05:40;;;;;;;5.05;1.80;;;17.30;75.60;;;;;;4974976;28;20019;-74
2022/06/02 10:08:33;;;;;;;4.55;1.15;;;17.30;75.40;;;;;;4981991;28;20119;-74
2022/06/02 10:11:15;;;;;;;1.73;0.80;;;17.40;75.00;;;;;;5045058;28;20416;-74
2022/06/02 10:13:45;;;;;;;2.30;1.30;;;17.50;74.70;;;;;;4978241;28;20034;-75
2022/06/02 10:16:29;;;;;;;6.63;1.10;;;17.50;74.20;;;;;;4976986;28;20033;-74
2022/06/02 10:19:30;;;;;;;8.30;1.58;;;17.50;73.80;;;;;;4981097;28;20021;-74
2022/06/02 10:22:02;;;;;;;1.70;0.90;;;17.60;73.70;;;;;;4978995;28;20022;-74
2022/06/02 10:24:39;;;;;;;4.22;0.95;;;17.70;72.80;;;;;;4980410;28;20026;-73
2022/06/02 10:27:44;;;;;;;2.78;0.90;;;17.70;72.50;;;;;;4978887;28;20023;-75
2022/06/02 10:30:34;;;;;;;3.42;1.10;;;17.80;71.80;;;;;;5049644;28;20026;-74
2022/06/02 10:33:15;;;;;;;2.65;0.70;;;17.80;71.80;;;;;;4983208;28;20026;-74
2022/06/02 10:35:59;;;;;;;4.50;1.20;;;17.90;71.80;;;;;;4976463;28;20027;-74
2022/06/02 10:38:35;;;;;;;3.90;1.05;;;17.90;71.40;;;;;;4976522;28;20042;-73
2022/06/02 10:41:29;;;;;;;4.57;1.17;;;18.00;71.00;;;;;;4981885;28;20031;-74
2022/06/02 10:44:01;;;;;;;1.88;1.23;;;18.10;71.00;;;;;;4978036;28;20019;-74
2022/06/02 10:46:46;;;;;;;3.75;1.10;;;18.10;69.90;;;;;;4981415;28;20037;-74
2022/06/02 10:49:34;;;;;;;2.72;1.00;;;18.20;69.60;;;;;;4978897;28;20030;-74
2022/06/02 10:52:38;;;;;;;4.68;0.98;;;18.20;69.20;;;;;;4980496;28;20069;-75
2022/06/02 10:55:47;;;;;;;7.50;1.02;;;18.30;68.70;;;;;;4983150;28;20562;-73
2022/06/02 10:58:50;;;;;;;2.67;0.90;;;18.30;68.50;;;;;;4978783;28;20057;-73
2022/06/02 11:01:35;;;;;;;4.50;1.25;;;18.40;68.10;;;;;;4972574;28;20109;-74
2022/06/02 11:04:20;;;;;;;3.97;1.63;;;18.50;68.10;;;;;;4978500;28;20031;-74
2022/06/02 11:06:50;;;;;;;5.65;1.23;;;18.50;68.20;;;;;;4979448;28;20092;-74
2022/06/02 11:09:46;;;;;;;3.85;1.60;;;18.60;68.30;;;;;;4979972;28;20113;-74
2022/06/02 11:12:31;;;;;;;5.72;1.92;;;18.60;68.30;;;;;;4976556;28;20019;-74
2022/06/02 11:15:28;;;;;;;4.53;1.67;;;18.70;68.50;;;;;;4977872;28;20065;-73
2022/06/02 11:18:26;;;;;;;3.83;1.52;;;18.70;68.60;;;;;;4979652;28;20097;-74
2022/06/02 11:21:26;;;;;;;3.53;1.60;;;18.80;68.50;;;;;;4980199;28;20037;-74
2022/06/02 11:24:34;;;;;;;3.72;1.48;;;18.90;68.50;;;;;;4979838;28;20022;-74
2022/06/02 11:27:33;;;;;;;6.90;1.83;;;18.90;68.30;;;;;;4990319;28;20041;-73
2022/06/02 11:30:36;;;;;;;6.40;1.35;;;19.00;67.80;;;;;;4978623;28;20041;-74
2022/06/02 11:33:28;;;;;;;3.72;1.50;;;19.00;67.30;;;;;;4978911;28;20128;-74
2022/06/02 11:36:49;;;;;;;3.65;1.55;;;19.10;67.60;;;;;;4980015;28;20065;-74
2022/06/02 11:39:42;;;;;;;4.70;1.77;;;19.10;67.40;;;;;;5011630;28;20527;-75
2022/06/02 11:42:22;;;;;;;5.35;1.30;;;19.20;67.20;;;;;;5009665;28;20992;-74
2022/06/02 11:45:03;;;;;;;3.65;2.47;;;19.20;67.10;;;;;;4988232;28;20073;-75
2022/06/02 11:47:45;;;;;;;3.70;1.98;;;19.30;66.70;;;;;;4978772;28;20035;-74
2022/06/02 11:50:37;;;;;;;3.38;1.83;;;19.30;66.50;;;;;;4982159;28;20026;-74
2022/06/02 11:53:28;;;;;;;3.17;1.63;;;19.40;66.20;;;;;;4978505;28;20026;-73
2022/06/02 11:56:11;;;;;;;4.78;1.92;;;19.40;66.00;;;;;;4978565;28;20027;-75
2022/06/02 11:58:59;;;;;;;4.47;2.65;;;19.50;65.90;;;;;;4977703;28;20027;-74
2022/06/02 12:01:52;;;;;;;2.83;1.83;;;19.50;65.60;;;;;;4980871;28;20472;-74
2022/06/02 12:04:25;;;;;;;4.93;2.15;;;19.60;65.60;;;;;;4986106;28;20065;-75
2022/06/02 12:07:19;;;;;;;4.75;2.25;;;19.60;65.50;;;;;;4973820;28;20027;-75
2022/06/02 12:10:01;;;;;;;4.40;1.70;;;19.70;65.20;;;;;;4980362;28;20043;-74
2022/06/02 12:12:41;;;;;;;8.32;2.55;;;19.70;64.60;;;;;;4976779;28;20024;-74
2022/06/02 12:15:26;;;;;;;5.93;2.92;;;19.70;64.20;;;;;;4970552;28;20019;-73
2022/06/02 12:18:26;;;;;;;6.97;2.60;;;19.80;64.20;;;;;;4979624;28;20176;-74
2022/06/02 12:21:34;;;;;;;2.97;1.38;;;19.80;63.90;;;;;;4979480;28;20385;-75
2022/06/02 12:24:38;;;;;;;5.35;1.80;;;19.80;64.00;;;;;;4977039;28;20015;-73
2022/06/02 12:27:26;;;;;;;3.90;2.22;;;19.90;64.10;;;;;;4981398;28;20027;-74
2022/06/02 12:30:21;;;;;;;10.20;3.25;;;19.90;64.20;;;;;;4978132;28;20025;-74
2022/06/02 12:33:00;;;;;;;6.68;2.05;;;20.00;64.00;;;;;;4975561;28;20018;-74
2022/06/02 12:35:29;;;;;;;7.28;2.30;;;20.00;63.60;;;;;;4978651;28;20027;-74
2022/06/02 12:38:31;;;;;;;6.15;1.88;;;20.00;63.80;;;;;;4975955;28;20815;-75
2022/06/02 12:41:21;;;;;;;7.63;2.90;;;20.00;64.10;;;;;;4984500;28;20460;-73
2022/06/02 12:44:06;;;;;;;5.97;2.53;;;20.10;64.30;;;;;;4976954;28;20057;-75
2022/06/02 12:46:59;;;;;;;7.50;2.07;;;20.10;64.00;;;;;;4974938;28;20076;-74
2022/06/02 12:49:43;;;;;;;6.13;2.47;;;20.10;64.00;;;;;;4977500;28;20296;-75
2022/06/02 12:52:27;;;;;;;11.00;2.85;;;20.10;63.60;;;;;;4975841;28;20045;-74
2022/06/02 12:55:29;;;;;;;2.35;1.70;;;20.10;63.50;;;;;;4976310;28;20352;-75
2022/06/02 12:58:18;;;;;;;7.82;2.95;;;20.10;63.20;;;;;;4978773;28;20034;-75
2022/06/02 13:01:03;;;;;;;5.15;2.00;;;20.00;62.80;;;;;;4975880;28;20015;-74
2022/06/02 13:04:00;;;;;;;4.15;1.60;;;20.10;62.90;;;;;;4975434;28;20050;-74
2022/06/02 13:06:46;;;;;;;5.18;2.15;;;20.00;62.70;;;;;;4978888;28;20021;-76
2022/06/02 13:09:46;;;;;;;8.05;2.85;;;20.10;62.70;;;;;;4980208;28;20037;-75
2022/06/02 13:12:44;;;;;;;6.90;1.92;;;20.10;62.50;;;;;;4979139;28;20018;-75
2022/06/02 13:15:52;;;;;;;6.68;1.77;;;20.10;62.70;;;;;;4977762;28;20409;-75
2022/06/02 13:18:39;;;;;;;3.80;2.15;;;20.10;62.80;;;;;;4992227;28;20031;-74
2022/06/02 13:21:27;;;;;;;3.75;1.65;;;20.10;62.90;;;;;;4975891;28;20042;-74
2022/06/02 13:24:23;;;;;;;6.82;2.45;;;20.10;63.20;;;;;;4980023;28;20710;-74
2022/06/02 13:27:10;;;;;;;10.27;2.22;;;20.10;63.40;;;;;;4973720;28;20027;-75
2022/06/02 13:30:20;;;;;;;6.22;1.38;;;20.10;64.40;;;;;;4971289;28;20577;-73
2022/06/02 13:33:20;;;;;;;5.63;1.85;;;20.10;63.50;;;;;;4980012;28;20092;-74
2022/06/02 13:36:18;;;;;;;9.20;1.95;;;20.10;63.60;;;;;;4979026;28;20026;-74
2022/06/02 13:39:22;;;;;;;7.57;1.75;;;20.10;63.60;;;;;;4976069;28;20034;-74
2022/06/02 13:41:50;;;;;;;5.43;2.08;;;20.10;63.40;;;;;;4975380;28;20517;-75
2022/06/02 13:44:47;;;;;;;21.23;2.90;;;20.10;63.30;;;;;;4978795;28;20010;-74
2022/06/02 13:47:43;;;;;;;3.72;2.28;;;20.10;63.40;;;;;;4980482;28;20057;-75
2022/06/02 13:50:34;;;;;;;6.18;2.03;;;20.10;63.50;;;;;;4981843;28;20015;-74
2022/06/02 13:53:19;;;;;;;11.48;2.50;;;20.10;63.60;;;;;;4982898;28;20364;-74
2022/06/02 13:59:00;;;;;;;6.50;2.45;;;20.00;63.60;;;;;;4982494;28;20410;-75
2022/06/02 14:01:49;;;;;;;3.88;1.73;;;19.90;64.40;;;;;;4980793;28;20030;-74
2022/06/02 14:04:35;;;;;;;8.93;2.53;;;19.90;64.00;;;;;;4980399;28;20022;-74
2022/06/02 14:07:24;;;;;;;3.50;1.73;;;19.80;64.00;;;;;;4981506;28;20524;-74
2022/06/02 14:09:57;;;;;;;13.15;3.30;;;19.80;64.30;;;;;;4980280;28;20034;-75
2022/06/02 14:12:59;;;;;;;6.95;2.47;;;19.80;64.40;;;;;;4974461;28;20470;-75
2022/06/02 14:15:45;;;;;;;7.03;2.85;;;19.70;64.50;;;;;;4984283;28;20401;-74
2022/06/02 14:19:02;;;;;;;9.63;2.33;;;19.70;64.60;;;;;;4980700;28;20056;-75
2022/06/02 14:21:51;;;;;;;9.60;2.38;;;19.70;64.90;;;;;;4992036;28;20060;-74
2022/06/02 14:24:46;;;;;;;10.35;2.55;;;19.60;65.20;;;;;;4982959;28;20022;-74
2022/06/02 14:27:24;;;;;;;14.13;3.63;;;19.60;65.40;;;;;;4981879;28;20099;-74
2022/06/02 14:29:57;;;;;;;9.00;2.42;;;19.60;65.60;;;;;;4979146;28;20268;-74
2022/06/02 14:32:26;;;;;;;13.95;2.60;;;19.50;65.70;;;;;;4979305;28;20038;-75
2022/06/02 14:35:13;;;;;;;7.53;2.72;;;19.50;65.70;;;;;;4982323;28;20014;-75
2022/06/02 14:37:50;;;;;;;8.15;2.78;;;19.40;65.90;;;;;;4981259;28;20093;-75
2022/06/02 14:40:27;;;;;;;5.65;3.25;;;19.40;66.00;;;;;;4981623;28;20040;-73
2022/06/02 14:43:19;;;;;;;9.88;4.10;;;19.40;66.30;;;;;;4978713;28;20022;-73
2022/06/02 14:46:07;;;;;;;11.98;4.38;;;19.30;66.60;;;;;;4981872;28;20046;-76
2022/06/02 14:48:56;;;;;;;8.35;2.45;;;19.30;66.30;;;;;;4977497;28;20031;-75
2022/06/02 14:51:35;;;;;;;6.32;2.05;;;19.30;66.30;;;;;;5047162;28;20034;-79
2022/06/02 14:54:42;;;;;;;9.82;2.15;;;19.20;66.20;;;;;;4980988;28;20019;-75
2022/06/02 14:57:19;;;;;;;10.27;3.15;;;19.20;66.20;;;;;;4981063;28;20022;-77
2022/06/02 15:00:05;;;;;;;17.02;2.30;;;19.20;66.80;;;;;;4976899;28;20079;-79
2022/06/02 15:02:53;;;;;;;10.77;2.20;;;19.20;67.60;;;;;;4977068;28;20099;-76
2022/06/02 15:05:42;;;;;;;6.25;1.70;;;19.20;67.70;;;;;;4978257;28;20026;-74
2022/06/02 15:08:27;;;;;;;3.72;1.33;;;19.10;67.60;;;;;;4993550;28;20046;-74
2022/06/02 15:10:58;;;;;;;7.40;3.60;;;19.10;68.20;;;;;;4978452;28;20497;-77
2022/06/02 15:13:38;;;;;;;12.82;5.95;;;19.10;68.30;;;;;;4976183;28;20015;-84
2022/06/02 15:16:46;;;;;;;13.13;4.72;;;19.00;68.40;;;;;;4973981;28;20023;-79
2022/06/02 15:19:30;;;;;;;8.65;2.88;;;19.00;68.60;;;;;;4976264;28;20034;-82
2022/06/02 15:22:12;;;;;;;6.60;2.73;;;19.00;68.50;;;;;;4976847;28;20019;-77
2022/06/02 15:25:15;;;;;;;5.35;2.58;;;18.90;68.50;;;;;;4980189;28;20280;-73
2022/06/02 15:28:19;;;;;;;7.78;3.17;;;18.90;68.60;;;;;;4976811;28;20030;-71
2022/06/02 15:31:13;;;;;;;10.98;6.55;;;18.80;68.80;;;;;;4977878;28;20022;-77
2022/06/02 15:34:07;;;;;;;14.80;5.90;;;18.70;69.50;;;;;;5051449;28;20471;-79
2022/06/02 15:36:49;;;;;;;8.40;4.30;;;18.70;68.80;;;;;;4976209;28;20038;-77
2022/06/02 15:39:54;;;;;;;9.75;4.57;;;18.60;68.70;;;;;;4977334;28;20030;-72
2022/06/02 15:42:43;;;;;;;26.58;21.67;;;18.60;68.80;;;;;;4977910;28;20038;-72
2022/06/02 15:45:47;;;;;;;26.45;19.08;;;18.60;68.80;;;;;;4975723;28;20027;-72
2022/06/02 15:48:44;;;;;;;17.30;9.90;;;18.50;68.70;;;;;;4976661;28;20031;-70
2022/06/02 15:51:39;;;;;;;12.73;7.50;;;18.50;68.90;;;;;;4976585;28;20065;-69
2022/06/02 15:54:27;;;;;;;9.85;5.40;;;18.50;69.10;;;;;;4977944;28;20107;-70
2022/06/02 15:57:35;;;;;;;16.90;8.90;;;18.50;69.30;;;;;;4975197;28;20027;-71
2022/06/02 16:00:07;;;;;;;13.07;5.93;;;18.40;68.60;;;;;;5023408;28;20045;-71
2022/06/02 16:03:18;;;;;;;7.88;3.97;;;18.30;68.50;;;;;;5024182;28;20013;-71
2022/06/02 16:06:03;;;;;;;9.93;4.05;;;18.30;68.20;;;;;;4984899;28;21352;-72
2022/06/02 16:08:48;;;;;;;10.03;3.20;;;18.20;69.00;;;;;;4975368;28;20428;-71
2022/06/02 16:11:51;;;;;;;4.85;3.10;;;18.10;69.40;;;;;;5047735;28;20063;-71
2022/06/02 16:14:39;;;;;;;5.47;3.45;;;18.10;69.70;;;;;;4976137;28;20031;-70
2022/06/02 16:17:46;;;;;;;15.40;9.88;;;18.10;70.00;;;;;;4975700;28;20111;-70
2022/06/02 16:20:44;;;;;;;13.20;8.23;;;18.10;70.00;;;;;;4973850;28;20091;-70
2022/06/02 16:23:29;;;;;;;15.05;8.25;;;18.10;70.00;;;;;;4971583;28;20141;-71
2022/06/02 16:26:23;;;;;;;8.48;4.68;;;18.00;70.10;;;;;;4976254;28;20035;-73
2022/06/02 16:29:28;;;;;;;6.45;4.82;;;18.00;70.20;;;;;;4970948;28;20050;-69
2022/06/02 16:32:20;;;;;;;6.63;5.05;;;18.00;70.30;;;;;;4975479;28;20512;-70
2022/06/02 16:35:23;;;;;;;7.95;4.60;;;18.00;70.50;;;;;;4972041;28;20046;-70
2022/06/02 16:38:28;;;;;;;17.35;4.05;;;17.90;70.50;;;;;;4975583;28;20043;-70
2022/06/02 16:41:21;;;;;;;7.45;3.60;;;17.90;70.50;;;;;;4976546;28;20041;-70
2022/06/02 16:43:54;;;;;;;4.57;2.95;;;17.90;70.70;;;;;;4976650;28;20049;-70
2022/06/02 16:46:27;;;;;;;8.13;3.15;;;17.90;70.80;;;;;;4977728;28;20041;-70
2022/06/02 16:49:24;;;;;;;8.32;3.80;;;17.80;70.90;;;;;;4979131;28;20116;-72
2022/06/02 16:52:21;;;;;;;7.68;3.92;;;17.80;71.10;;;;;;4984585;28;21392;-72
2022/06/02 16:54:56;;;;;;;8.90;3.72;;;17.80;71.20;;;;;;4977483;28;20029;-74
2022/06/02 16:58:07;;;;;;;4.03;3.38;;;17.70;71.30;;;;;;4976893;28;20015;-72
2022/06/02 17:01:05;;;;;;;5.93;3.92;;;17.70;71.30;;;;;;4985035;28;20060;-71
2022/06/02 17:04:09;;;;;;;10.50;5.22;;;17.70;71.50;;;;;;4977347;28;20466;-72
2022/06/02 17:06:54;;;;;;;8.00;4.13;;;17.70;71.60;;;;;;4974748;28;20027;-71
2022/06/02 17:09:43;;;;;;;6.05;4.40;;;17.60;71.60;;;;;;4975734;28;20118;-71
2022/06/02 17:12:14;;;;;;;8.20;4.80;;;17.60;71.70;;;;;;4976725;28;20030;-71
2022/06/02 17:14:58;;;;;;;12.80;5.38;;;17.60;71.90;;;;;;4972029;28;20038;-71
2022/06/02 17:17:58;;;;;;;10.40;5.20;;;17.50;72.10;;;;;;4976565;28;20034;-70
2022/06/02 17:20:47;;;;;;;9.15;4.90;;;17.50;72.20;;;;;;4976690;28;20019;-74
2022/06/02 17:23:46;;;;;;;8.27;4.43;;;17.50;72.40;;;;;;4973542;28;20026;-74
2022/06/02 17:26:53;;;;;;;15.10;9.23;;;17.40;72.30;;;;;;4971959;28;20027;-72
2022/06/02 17:29:52;;;;;;;30.60;21.17;;;17.40;72.60;;;;;;4974901;28;20039;-71
2022/06/02 17:32:55;;;;;;;24.98;17.70;;;17.40;72.80;;;;;;4974791;28;20031;-70
2022/06/02 17:35:32;;;;;;;27.42;14.68;;;17.40;73.00;;;;;;4975199;28;20481;-72
2022/06/02 17:38:17;;;;;;;19.52;11.98;;;17.40;73.10;;;;;;4978851;28;20039;-71
2022/06/02 17:41:03;;;;;;;14.73;7.70;;;17.30;73.30;;;;;;4973236;28;20033;-71
2022/06/02 17:43:56;;;;;;;17.23;8.23;;;17.30;73.50;;;;;;4976536;28;20023;-71
2022/06/02 17:46:50;;;;;;;16.17;8.95;;;17.30;73.60;;;;;;4976249;28;20036;-71
2022/06/02 17:49:23;;;;;;;11.50;7.85;;;17.20;73.80;;;;;;4974594;28;20092;-72
2022/06/02 17:52:03;;;;;;;16.90;9.02;;;17.20;73.80;;;;;;4974401;28;20110;-71
2022/06/02 17:54:51;;;;;;;21.27;10.20;;;17.20;74.00;;;;;;4973598;28;20093;-71
2022/06/02 17:57:58;;;;;;;23.80;11.07;;;17.20;74.10;;;;;;5048110;28;20027;-71
2022/06/02 18:00:38;;;;;;;23.58;11.70;;;17.20;74.40;;;;;;4975192;28;20440;-72
2022/06/02 18:03:17;;;;;;;25.02;16.20;;;17.20;74.30;;;;;;4973233;28;20113;-72
2022/06/02 18:06:13;;;;;;;40.53;25.80;;;17.10;74.50;;;;;;4973031;28;20030;-71
2022/06/02 18:08:59;;;;;;;32.13;18.67;;;17.10;74.90;;;;;;4986778;28;20045;-71
2022/06/02 18:11:29;;;;;;;23.92;14.05;;;17.10;75.20;;;;;;5047368;28;20052;-71
2022/06/02 18:14:29;;;;;;;22.83;14.10;;;17.10;75.60;;;;;;4974093;28;20501;-70
2022/06/02 18:17:21;;;;;;;23.27;13.10;;;17.10;75.90;;;;;;4971100;28;20468;-70
2022/06/02 18:20:07;;;;;;;21.23;11.63;;;17.00;76.20;;;;;;4976701;28;20102;-70
2022/06/02 18:23:11;;;;;;;27.10;12.70;;;17.00;76.50;;;;;;4976338;28;20031;-71
2022/06/02 18:25:54;;;;;;;17.20;11.77;;;17.00;76.90;;;;;;4971156;28;20481;-71
2022/06/02 18:28:56;;;;;;;23.42;12.02;;;17.00;77.20;;;;;;4970782;28;20038;-74
2022/06/02 18:31:28;;;;;;;28.50;18.70;;;17.00;77.40;;;;;;4972519;28;20047;-71
2022/06/02 18:34:13;;;;;;;35.08;23.58;;;17.00;77.60;;;;;;4970657;28;20041;-70
2022/06/02 18:36:57;;;;;;;30.05;18.77;;;17.00;77.70;;;;;;4970429;28;20118;-70
2022/06/02 18:39:59;;;;;;;32.87;23.57;;;17.00;77.90;;;;;;4975074;28;20035;-70
2022/06/02 18:43:20;;;;;;;31.65;21.55;;;16.90;78.10;;;;;;4973722;28;20057;-70
2022/06/02 18:45:49;;;;;;;22.40;15.02;;;16.90;78.10;;;;;;4970888;28;20563;-70
2022/06/02 18:48:53;;;;;;;29.83;18.15;;;16.90;78.20;;;;;;4974405;28;20054;-70
2022/06/02 18:51:23;;;;;;;36.78;22.00;;;16.90;78.30;;;;;;4972992;28;20026;-70
2022/06/02 18:54:12;;;;;;;25.45;18.08;;;16.90;78.30;;;;;;4971583;28;20395;-70
2022/06/02 18:57:19;;;;;;;26.13;14.18;;;16.90;78.40;;;;;;4974683;28;20046;-70
2022/06/02 18:59:57;;;;;;;23.45;13.45;;;16.80;78.30;;;;;;5034667;28;20524;-70
2022/06/02 19:03:06;;;;;;;26.20;13.63;;;16.80;78.30;;;;;;4981541;28;20114;-70
2022/06/02 19:15:58;;;;;;;21.92;12.23;;;16.80;78.30;;;;;;4970870;28;20084;-70
2022/06/02 19:19:18;;;;;;;21.80;11.98;;;16.70;78.20;;;;;;4971783;28;20226;-70
2022/06/02 19:21:57;;;;;;;19.40;12.00;;;16.70;78.30;;;;;;4984645;28;20128;-70
2022/06/02 19:24:43;;;;;;;15.02;11.65;;;16.70;78.30;;;;;;4972485;28;20036;-70
2022/06/02 19:27:46;;;;;;;22.85;12.82;;;16.70;78.40;;;;;;4972661;28;20057;-70